sensor_id;sensor_type;location;lat;lon;timestamp;P1;durP1;ratioP1;P2;durP2;ratioP2
6564;SDS011;3316;44.118;27.258;2023-05-07T00:01:58;10.40;;;3.90;;
6564;SDS011;3316;44.118;27.258;2023-05-07T00:04:24;10.20;;;4.00;;
6564;SDS011;3316;44.118;27.258;2023-05-07T00:06:49;5.30;;;3.87;;
6564;SDS011;3316;44.118;27.258;2023-05-07T00:09:15;6.07;;;3.73;;
6564;SDS011;3316;44.118;27.258;2023-05-07T00:11:41;6.97;;;3.57;;
6564;SDS011;3316;44.118;27.258;2023-05-07T00:14:06;4.23;;;3.43;;
6564;SDS011;3316;44.118;27.258;2023-05-07T00:16:32;4.47;;;3.53;;
6564;SDS011;3316;44.118;27.258;2023-05-07T00:18:57;10.77;;;4.03;;
6564;SDS011;3316;44.118;27.258;2023-05-07T00:21:23;6.53;;;4.10;;
6564;SDS011;3316;44.118;27.258;2023-05-07T00:23:51;7.13;;;3.47;;
6564;SDS011;3316;44.118;27.258;2023-05-07T00:26:17;9.87;;;3.80;;
6564;SDS011;3316;44.118;27.258;2023-05-07T00:28:43;14.07;;;4.40;;
6564;SDS011;3316;44.118;27.258;2023-05-07T00:31:08;8.93;;;4.33;;
6564;SDS011;3316;44.118;27.258;2023-05-07T00:33:34;11.73;;;4.40;;
6564;SDS011;3316;44.118;27.258;2023-05-07T00:35:59;8.43;;;3.80;;
6564;SDS011;3316;44.118;27.258;2023-05-07T00:38:26;9.27;;;3.77;;
6564;SDS011;3316;44.118;27.258;2023-05-07T00:40:52;8.27;;;3.60;;
6564;SDS011;3316;44.118;27.258;2023-05-07T00:43:17;8.23;;;3.97;;
6564;SDS011;3316;44.118;27.258;2023-05-07T00:45:43;5.93;;;3.83;;
6564;SDS011;3316;44.118;27.258;2023-05-07T00:48:08;8.90;;;4.33;;
6564;SDS011;3316;44.118;27.258;2023-05-07T00:50:34;6.73;;;4.00;;
6564;SDS011;3316;44.118;27.258;2023-05-07T00:52:59;6.73;;;4.50;;
6564;SDS011;3316;44.118;27.258;2023-05-07T00:55:25;9.57;;;4.37;;
6564;SDS011;3316;44.118;27.258;2023-05-07T00:57:51;8.43;;;4.17;;
6564;SDS011;3316;44.118;27.258;2023-05-07T01:00:17;11.80;;;6.27;;
6564;SDS011;3316;44.118;27.258;2023-05-07T01:02:43;12.23;;;6.30;;
6564;SDS011;3316;44.118;27.258;2023-05-07T01:05:10;13.27;;;6.57;;
6564;SDS011;3316;44.118;27.258;2023-05-07T01:07:38;10.27;;;6.93;;
6564;SDS011;3316;44.118;27.258;2023-05-07T01:10:06;15.47;;;6.90;;
6564;SDS011;3316;44.118;27.258;2023-05-07T01:12:34;8.73;;;5.67;;
6564;SDS011;3316;44.118;27.258;2023-05-07T01:15:02;5.53;;;4.23;;
6564;SDS011;3316;44.118;27.258;2023-05-07T01:17:28;5.07;;;4.10;;
6564;SDS011;3316;44.118;27.258;2023-05-07T01:19:54;5.53;;;4.33;;
6564;SDS011;3316;44.118;27.258;2023-05-07T01:22:38;7.37;;;3.87;;
6564;SDS011;3316;44.118;27.258;2023-05-07T01:25:05;10.27;;;4.00;;
6564;SDS011;3316;44.118;27.258;2023-05-07T01:27:32;5.60;;;3.70;;
6564;SDS011;3316;44.118;27.258;2023-05-07T01:29:58;7.70;;;4.27;;
6564;SDS011;3316;44.118;27.258;2023-05-07T01:32:29;8.47;;;4.17;;
6564;SDS011;3316;44.118;27.258;2023-05-07T01:34:57;5.20;;;4.03;;
6564;SDS011;3316;44.118;27.258;2023-05-07T01:37:23;6.40;;;4.20;;
6564;SDS011;3316;44.118;27.258;2023-05-07T01:39:50;8.00;;;4.30;;
6564;SDS011;3316;44.118;27.258;2023-05-07T01:42:15;6.80;;;4.50;;
6564;SDS011;3316;44.118;27.258;2023-05-07T01:44:41;6.93;;;4.30;;
6564;SDS011;3316;44.118;27.258;2023-05-07T01:47:06;9.70;;;4.73;;
6564;SDS011;3316;44.118;27.258;2023-05-07T01:49:33;5.60;;;4.27;;
6564;SDS011;3316;44.118;27.258;2023-05-07T01:51:59;9.20;;;4.83;;
6564;SDS011;3316;44.118;27.258;2023-05-07T01:54:26;5.90;;;4.87;;
6564;SDS011;3316;44.118;27.258;2023-05-07T01:56:58;8.13;;;5.37;;
6564;SDS011;3316;44.118;27.258;2023-05-07T01:59:23;9.67;;;5.07;;
6564;SDS011;3316;44.118;27.258;2023-05-07T02:01:49;9.67;;;5.17;;
6564;SDS011;3316;44.118;27.258;2023-05-07T02:04:14;7.40;;;5.60;;
6564;SDS011;3316;44.118;27.258;2023-05-07T02:06:40;8.57;;;5.83;;
6564;SDS011;3316;44.118;27.258;2023-05-07T02:09:05;8.73;;;5.80;;
6564;SDS011;3316;44.118;27.258;2023-05-07T02:11:31;10.03;;;5.70;;
6564;SDS011;3316;44.118;27.258;2023-05-07T02:13:56;9.57;;;6.17;;
6564;SDS011;3316;44.118;27.258;2023-05-07T02:16:22;13.80;;;6.83;;
6564;SDS011;3316;44.118;27.258;2023-05-07T02:18:48;9.93;;;6.77;;
6564;SDS011;3316;44.118;27.258;2023-05-07T02:21:14;6.87;;;5.67;;
6564;SDS011;3316;44.118;27.258;2023-05-07T02:23:39;10.77;;;6.33;;
6564;SDS011;3316;44.118;27.258;2023-05-07T02:26:05;9.73;;;7.10;;
6564;SDS011;3316;44.118;27.258;2023-05-07T02:28:30;14.50;;;7.17;;
6564;SDS011;3316;44.118;27.258;2023-05-07T02:30:56;9.37;;;6.63;;
6564;SDS011;3316;44.118;27.258;2023-05-07T02:33:23;10.70;;;6.97;;
6564;SDS011;3316;44.118;27.258;2023-05-07T02:35:49;10.33;;;7.13;;
6564;SDS011;3316;44.118;27.258;2023-05-07T02:38:14;10.73;;;6.30;;
6564;SDS011;3316;44.118;27.258;2023-05-07T02:40:40;8.60;;;6.20;;
6564;SDS011;3316;44.118;27.258;2023-05-07T02:43:05;16.23;;;7.20;;
6564;SDS011;3316;44.118;27.258;2023-05-07T02:45:31;10.17;;;6.70;;
6564;SDS011;3316;44.118;27.258;2023-05-07T02:47:57;11.83;;;6.93;;
6564;SDS011;3316;44.118;27.258;2023-05-07T02:50:23;8.57;;;6.27;;
6564;SDS011;3316;44.118;27.258;2023-05-07T02:52:48;10.57;;;5.67;;
6564;SDS011;3316;44.118;27.258;2023-05-07T02:55:14;10.47;;;6.03;;
6564;SDS011;3316;44.118;27.258;2023-05-07T02:57:39;12.77;;;6.40;;
6564;SDS011;3316;44.118;27.258;2023-05-07T03:00:14;10.50;;;5.30;;
6564;SDS011;3316;44.118;27.258;2023-05-07T03:02:42;8.30;;;6.00;;
6564;SDS011;3316;44.118;27.258;2023-05-07T03:05:08;11.20;;;5.77;;
6564;SDS011;3316;44.118;27.258;2023-05-07T03:07:35;11.30;;;5.97;;
6564;SDS011;3316;44.118;27.258;2023-05-07T03:10:01;10.47;;;6.07;;
6564;SDS011;3316;44.118;27.258;2023-05-07T03:12:26;11.77;;;5.83;;
6564;SDS011;3316;44.118;27.258;2023-05-07T03:14:51;12.20;;;5.30;;
6564;SDS011;3316;44.118;27.258;2023-05-07T03:17:17;13.20;;;6.83;;
6564;SDS011;3316;44.118;27.258;2023-05-07T03:19:42;10.53;;;5.30;;
6564;SDS011;3316;44.118;27.258;2023-05-07T03:22:08;12.07;;;6.43;;
6564;SDS011;3316;44.118;27.258;2023-05-07T03:24:33;13.07;;;6.23;;
6564;SDS011;3316;44.118;27.258;2023-05-07T03:26:59;14.00;;;6.33;;
6564;SDS011;3316;44.118;27.258;2023-05-07T03:29:26;11.90;;;6.17;;
6564;SDS011;3316;44.118;27.258;2023-05-07T03:31:51;13.87;;;6.13;;
6564;SDS011;3316;44.118;27.258;2023-05-07T03:34:17;8.87;;;5.93;;
6564;SDS011;3316;44.118;27.258;2023-05-07T03:36:47;13.60;;;6.17;;
6564;SDS011;3316;44.118;27.258;2023-05-07T03:39:15;11.00;;;6.33;;
6564;SDS011;3316;44.118;27.258;2023-05-07T03:41:41;18.90;;;6.17;;
6564;SDS011;3316;44.118;27.258;2023-05-07T03:44:06;13.37;;;7.33;;
6564;SDS011;3316;44.118;27.258;2023-05-07T03:46:32;13.33;;;7.47;;
6564;SDS011;3316;44.118;27.258;2023-05-07T03:48:58;13.67;;;6.73;;
6564;SDS011;3316;44.118;27.258;2023-05-07T03:51:24;10.83;;;6.77;;
6564;SDS011;3316;44.118;27.258;2023-05-07T03:53:50;14.33;;;7.13;;
6564;SDS011;3316;44.118;27.258;2023-05-07T03:56:18;10.67;;;6.13;;
6564;SDS011;3316;44.118;27.258;2023-05-07T03:58:43;11.63;;;6.77;;
6564;SDS011;3316;44.118;27.258;2023-05-07T04:01:09;10.37;;;6.37;;
6564;SDS011;3316;44.118;27.258;2023-05-07T04:03:34;11.10;;;7.10;;
6564;SDS011;3316;44.118;27.258;2023-05-07T04:06:00;10.80;;;7.10;;
6564;SDS011;3316;44.118;27.258;2023-05-07T04:08:25;10.80;;;6.00;;
6564;SDS011;3316;44.118;27.258;2023-05-07T04:10:54;7.80;;;5.50;;
6564;SDS011;3316;44.118;27.258;2023-05-07T04:13:20;15.63;;;6.87;;
6564;SDS011;3316;44.118;27.258;2023-05-07T04:15:46;9.40;;;6.63;;
6564;SDS011;3316;44.118;27.258;2023-05-07T04:18:13;15.23;;;7.15;;
6564;SDS011;3316;44.118;27.258;2023-05-07T04:20:39;10.57;;;6.67;;
6564;SDS011;3316;44.118;27.258;2023-05-07T04:23:04;16.27;;;5.77;;
6564;SDS011;3316;44.118;27.258;2023-05-07T04:25:30;11.68;;;5.95;;
6564;SDS011;3316;44.118;27.258;2023-05-07T04:27:55;14.27;;;5.55;;
6564;SDS011;3316;44.118;27.258;2023-05-07T04:30:21;7.22;;;5.72;;
6564;SDS011;3316;44.118;27.258;2023-05-07T04:32:46;8.50;;;5.18;;
6564;SDS011;3316;44.118;27.258;2023-05-07T04:35:13;7.38;;;5.43;;
6564;SDS011;3316;44.118;27.258;2023-05-07T04:37:38;8.60;;;5.80;;
6564;SDS011;3316;44.118;27.258;2023-05-07T04:40:04;7.40;;;4.93;;
6564;SDS011;3316;44.118;27.258;2023-05-07T04:42:30;8.40;;;5.18;;
6564;SDS011;3316;44.118;27.258;2023-05-07T04:44:56;9.27;;;5.68;;
6564;SDS011;3316;44.118;27.258;2023-05-07T04:47:21;13.55;;;5.18;;
6564;SDS011;3316;44.118;27.258;2023-05-07T04:49:47;10.63;;;5.13;;
6564;SDS011;3316;44.118;27.258;2023-05-07T04:52:12;7.50;;;5.30;;
6564;SDS011;3316;44.118;27.258;2023-05-07T04:54:38;9.48;;;5.60;;
6564;SDS011;3316;44.118;27.258;2023-05-07T04:57:03;6.57;;;5.13;;
6564;SDS011;3316;44.118;27.258;2023-05-07T04:59:29;5.80;;;4.20;;
6564;SDS011;3316;44.118;27.258;2023-05-07T05:01:55;5.25;;;4.25;;
6564;SDS011;3316;44.118;27.258;2023-05-07T05:04:20;7.05;;;5.13;;
6564;SDS011;3316;44.118;27.258;2023-05-07T05:06:46;8.15;;;4.75;;
6564;SDS011;3316;44.118;27.258;2023-05-07T05:09:11;7.40;;;4.47;;
6564;SDS011;3316;44.118;27.258;2023-05-07T05:11:37;6.43;;;4.60;;
6564;SDS011;3316;44.118;27.258;2023-05-07T05:14:02;9.88;;;4.63;;
6564;SDS011;3316;44.118;27.258;2023-05-07T05:16:27;6.70;;;4.47;;
6564;SDS011;3316;44.118;27.258;2023-05-07T05:18:53;9.20;;;4.10;;
6564;SDS011;3316;44.118;27.258;2023-05-07T05:21:20;10.23;;;5.18;;
6564;SDS011;3316;44.118;27.258;2023-05-07T05:23:46;8.02;;;4.88;;
6564;SDS011;3316;44.118;27.258;2023-05-07T05:26:11;7.47;;;5.60;;
6564;SDS011;3316;44.118;27.258;2023-05-07T05:28:37;6.45;;;4.38;;
6564;SDS011;3316;44.118;27.258;2023-05-07T05:31:02;10.55;;;4.43;;
6564;SDS011;3316;44.118;27.258;2023-05-07T05:33:28;8.93;;;4.40;;
6564;SDS011;3316;44.118;27.258;2023-05-07T05:35:53;7.47;;;5.22;;
6564;SDS011;3316;44.118;27.258;2023-05-07T05:38:19;5.75;;;4.40;;
6564;SDS011;3316;44.118;27.258;2023-05-07T05:40:45;6.25;;;4.78;;
6564;SDS011;3316;44.118;27.258;2023-05-07T05:43:11;9.27;;;4.30;;
6564;SDS011;3316;44.118;27.258;2023-05-07T05:45:37;5.97;;;4.43;;
6564;SDS011;3316;44.118;27.258;2023-05-07T05:48:02;7.47;;;4.50;;
6564;SDS011;3316;44.118;27.258;2023-05-07T05:50:28;7.70;;;4.57;;
6564;SDS011;3316;44.118;27.258;2023-05-07T05:52:53;11.02;;;4.78;;
6564;SDS011;3316;44.118;27.258;2023-05-07T05:55:19;9.88;;;4.32;;
6564;SDS011;3316;44.118;27.258;2023-05-07T05:57:44;5.57;;;4.68;;
6564;SDS011;3316;44.118;27.258;2023-05-07T06:00:11;9.48;;;4.45;;
6564;SDS011;3316;44.118;27.258;2023-05-07T06:02:36;6.28;;;4.20;;
6564;SDS011;3316;44.118;27.258;2023-05-07T06:05:02;7.00;;;4.40;;
6564;SDS011;3316;44.118;27.258;2023-05-07T06:07:28;8.98;;;4.78;;
6564;SDS011;3316;44.118;27.258;2023-05-07T06:09:54;6.60;;;4.00;;
6564;SDS011;3316;44.118;27.258;2023-05-07T06:12:20;9.37;;;4.20;;
6564;SDS011;3316;44.118;27.258;2023-05-07T06:14:46;6.27;;;3.70;;
6564;SDS011;3316;44.118;27.258;2023-05-07T06:17:11;10.20;;;4.67;;
6564;SDS011;3316;44.118;27.258;2023-05-07T06:19:37;5.63;;;3.80;;
6564;SDS011;3316;44.118;27.258;2023-05-07T06:22:02;7.20;;;4.83;;
6564;SDS011;3316;44.118;27.258;2023-05-07T06:24:27;6.18;;;4.18;;
6564;SDS011;3316;44.118;27.258;2023-05-07T06:26:53;8.60;;;4.80;;
6564;SDS011;3316;44.118;27.258;2023-05-07T06:29:19;6.88;;;4.60;;
6564;SDS011;3316;44.118;27.258;2023-05-07T06:31:44;11.87;;;4.27;;
6564;SDS011;3316;44.118;27.258;2023-05-07T06:34:10;13.60;;;4.20;;
6564;SDS011;3316;44.118;27.258;2023-05-07T06:36:39;11.10;;;4.20;;
6564;SDS011;3316;44.118;27.258;2023-05-07T06:39:05;5.43;;;4.00;;
6564;SDS011;3316;44.118;27.258;2023-05-07T06:41:30;7.40;;;4.20;;
6564;SDS011;3316;44.118;27.258;2023-05-07T06:43:56;6.50;;;4.05;;
6564;SDS011;3316;44.118;27.258;2023-05-07T06:46:21;7.22;;;3.88;;
6564;SDS011;3316;44.118;27.258;2023-05-07T06:48:47;8.35;;;4.28;;
6564;SDS011;3316;44.118;27.258;2023-05-07T06:51:12;4.35;;;3.50;;
6564;SDS011;3316;44.118;27.258;2023-05-07T06:53:38;6.00;;;3.80;;
6564;SDS011;3316;44.118;27.258;2023-05-07T06:56:03;9.77;;;4.50;;
6564;SDS011;3316;44.118;27.258;2023-05-07T06:58:29;5.60;;;3.50;;
6564;SDS011;3316;44.118;27.258;2023-05-07T07:00:55;8.55;;;3.42;;
6564;SDS011;3316;44.118;27.258;2023-05-07T07:03:20;6.13;;;3.97;;
6564;SDS011;3316;44.118;27.258;2023-05-07T07:05:45;6.05;;;3.80;;
6564;SDS011;3316;44.118;27.258;2023-05-07T07:08:11;6.68;;;3.83;;
6564;SDS011;3316;44.118;27.258;2023-05-07T07:10:36;6.28;;;4.13;;
6564;SDS011;3316;44.118;27.258;2023-05-07T07:13:02;8.60;;;3.47;;
6564;SDS011;3316;44.118;27.258;2023-05-07T07:15:27;8.30;;;4.20;;
6564;SDS011;3316;44.118;27.258;2023-05-07T07:17:53;5.07;;;3.40;;
6564;SDS011;3316;44.118;27.258;2023-05-07T07:20:18;6.10;;;3.47;;
6564;SDS011;3316;44.118;27.258;2023-05-07T07:22:44;5.97;;;3.00;;
6564;SDS011;3316;44.118;27.258;2023-05-07T07:25:09;4.90;;;2.58;;
6564;SDS011;3316;44.118;27.258;2023-05-07T07:27:36;3.85;;;2.47;;
6564;SDS011;3316;44.118;27.258;2023-05-07T07:30:02;4.65;;;2.63;;
6564;SDS011;3316;44.118;27.258;2023-05-07T07:32:27;6.55;;;2.60;;
6564;SDS011;3316;44.118;27.258;2023-05-07T07:34:53;6.50;;;2.80;;
6564;SDS011;3316;44.118;27.258;2023-05-07T07:37:18;5.30;;;2.70;;
6564;SDS011;3316;44.118;27.258;2023-05-07T07:39:44;4.50;;;2.70;;
6564;SDS011;3316;44.118;27.258;2023-05-07T07:42:09;9.80;;;2.80;;
6564;SDS011;3316;44.118;27.258;2023-05-07T07:44:34;3.28;;;2.67;;
6564;SDS011;3316;44.118;27.258;2023-05-07T07:47:00;3.65;;;2.55;;
6564;SDS011;3316;44.118;27.258;2023-05-07T07:49:26;7.53;;;3.10;;
6564;SDS011;3316;44.118;27.258;2023-05-07T07:51:51;5.13;;;2.97;;
6564;SDS011;3316;44.118;27.258;2023-05-07T07:54:17;6.00;;;3.20;;
6564;SDS011;3316;44.118;27.258;2023-05-07T07:56:42;4.93;;;2.80;;
6564;SDS011;3316;44.118;27.258;2023-05-07T07:59:08;4.00;;;2.97;;
6564;SDS011;3316;44.118;27.258;2023-05-07T08:01:33;3.47;;;2.67;;
6564;SDS011;3316;44.118;27.258;2023-05-07T08:03:59;11.18;;;3.33;;
6564;SDS011;3316;44.118;27.258;2023-05-07T08:06:24;6.70;;;2.63;;
6564;SDS011;3316;44.118;27.258;2023-05-07T08:08:51;5.80;;;2.90;;
6564;SDS011;3316;44.118;27.258;2023-05-07T08:11:16;2.88;;;2.58;;
6564;SDS011;3316;44.118;27.258;2023-05-07T08:13:42;5.97;;;2.97;;
6564;SDS011;3316;44.118;27.258;2023-05-07T08:16:08;4.63;;;2.78;;
6564;SDS011;3316;44.118;27.258;2023-05-07T08:18:33;7.68;;;3.00;;
6564;SDS011;3316;44.118;27.258;2023-05-07T08:20:59;3.17;;;2.38;;
6564;SDS011;3316;44.118;27.258;2023-05-07T08:23:24;6.28;;;3.08;;
6564;SDS011;3316;44.118;27.258;2023-05-07T08:25:50;4.22;;;2.95;;
6564;SDS011;3316;44.118;27.258;2023-05-07T08:28:16;3.63;;;2.67;;
6564;SDS011;3316;44.118;27.258;2023-05-07T08:30:41;6.25;;;2.22;;
6564;SDS011;3316;44.118;27.258;2023-05-07T08:33:08;8.45;;;3.00;;
6564;SDS011;3316;44.118;27.258;2023-05-07T08:35:34;5.65;;;2.78;;
6564;SDS011;3316;44.118;27.258;2023-05-07T08:38:00;4.53;;;2.50;;
6564;SDS011;3316;44.118;27.258;2023-05-07T08:40:25;5.25;;;3.00;;
6564;SDS011;3316;44.118;27.258;2023-05-07T08:42:52;5.07;;;2.58;;
6564;SDS011;3316;44.118;27.258;2023-05-07T08:45:19;3.58;;;2.65;;
6564;SDS011;3316;44.118;27.258;2023-05-07T08:47:53;4.20;;;3.03;;
6564;SDS011;3316;44.118;27.258;2023-05-07T08:50:23;6.40;;;2.67;;
6564;SDS011;3316;44.118;27.258;2023-05-07T08:52:49;5.03;;;2.47;;
6564;SDS011;3316;44.118;27.258;2023-05-07T08:55:14;6.32;;;2.78;;
6564;SDS011;3316;44.118;27.258;2023-05-07T08:57:40;4.03;;;2.58;;
6564;SDS011;3316;44.118;27.258;2023-05-07T09:00:05;8.23;;;2.58;;
6564;SDS011;3316;44.118;27.258;2023-05-07T09:02:32;4.65;;;2.30;;
6564;SDS011;3316;44.118;27.258;2023-05-07T09:04:59;11.45;;;2.72;;
6564;SDS011;3316;44.118;27.258;2023-05-07T09:07:25;4.70;;;2.50;;
6564;SDS011;3316;44.118;27.258;2023-05-07T09:09:51;2.60;;;2.03;;
6564;SDS011;3316;44.118;27.258;2023-05-07T09:12:17;5.78;;;2.33;;
6564;SDS011;3316;44.118;27.258;2023-05-07T09:14:45;4.30;;;2.72;;
6564;SDS011;3316;44.118;27.258;2023-05-07T09:17:11;6.35;;;2.63;;
6564;SDS011;3316;44.118;27.258;2023-05-07T09:19:36;3.75;;;2.20;;
6564;SDS011;3316;44.118;27.258;2023-05-07T09:22:02;2.95;;;2.13;;
6564;SDS011;3316;44.118;27.258;2023-05-07T09:24:29;6.60;;;3.65;;
6564;SDS011;3316;44.118;27.258;2023-05-07T09:27:00;4.22;;;2.00;;
6564;SDS011;3316;44.118;27.258;2023-05-07T09:29:26;5.70;;;2.00;;
6564;SDS011;3316;44.118;27.258;2023-05-07T09:31:54;2.85;;;2.05;;
6564;SDS011;3316;44.118;27.258;2023-05-07T09:34:20;5.97;;;2.28;;
6564;SDS011;3316;44.118;27.258;2023-05-07T09:36:45;4.65;;;2.30;;
6564;SDS011;3316;44.118;27.258;2023-05-07T09:39:11;2.67;;;1.92;;
6564;SDS011;3316;44.118;27.258;2023-05-07T09:41:44;3.47;;;2.70;;
6564;SDS011;3316;44.118;27.258;2023-05-07T09:44:11;5.35;;;2.92;;
6564;SDS011;3316;44.118;27.258;2023-05-07T09:46:38;5.60;;;2.85;;
6564;SDS011;3316;44.118;27.258;2023-05-07T09:49:04;7.50;;;2.83;;
6564;SDS011;3316;44.118;27.258;2023-05-07T09:51:38;5.85;;;2.60;;
6564;SDS011;3316;44.118;27.258;2023-05-07T09:54:06;3.00;;;2.42;;
6564;SDS011;3316;44.118;27.258;2023-05-07T09:56:32;8.27;;;2.83;;
6564;SDS011;3316;44.118;27.258;2023-05-07T09:58:59;4.55;;;2.90;;
6564;SDS011;3316;44.118;27.258;2023-05-07T10:01:25;2.83;;;2.58;;
6564;SDS011;3316;44.118;27.258;2023-05-07T10:03:52;7.18;;;2.90;;
6564;SDS011;3316;44.118;27.258;2023-05-07T10:06:19;7.80;;;2.47;;
6564;SDS011;3316;44.118;27.258;2023-05-07T10:08:45;6.38;;;2.65;;
6564;SDS011;3316;44.118;27.258;2023-05-07T10:11:11;6.03;;;2.83;;
6564;SDS011;3316;44.118;27.258;2023-05-07T10:13:37;4.68;;;2.95;;
6564;SDS011;3316;44.118;27.258;2023-05-07T10:16:03;6.65;;;2.50;;
6564;SDS011;3316;44.118;27.258;2023-05-07T10:18:30;6.03;;;2.60;;
6564;SDS011;3316;44.118;27.258;2023-05-07T10:21:07;6.70;;;2.83;;
6564;SDS011;3316;44.118;27.258;2023-05-07T10:23:36;3.45;;;2.75;;
6564;SDS011;3316;44.118;27.258;2023-05-07T10:26:04;5.78;;;2.70;;
6564;SDS011;3316;44.118;27.258;2023-05-07T10:28:32;4.15;;;2.47;;
6564;SDS011;3316;44.118;27.258;2023-05-07T10:34:07;5.90;;;2.72;;
6564;SDS011;3316;44.118;27.258;2023-05-07T10:36:35;8.10;;;2.60;;
6564;SDS011;3316;44.118;27.258;2023-05-07T10:39:01;5.30;;;2.97;;
6564;SDS011;3316;44.118;27.258;2023-05-07T10:41:26;2.88;;;2.30;;
6564;SDS011;3316;44.118;27.258;2023-05-07T10:43:52;9.63;;;4.10;;
6564;SDS011;3316;44.118;27.258;2023-05-07T10:46:18;5.50;;;2.80;;
6564;SDS011;3316;44.118;27.258;2023-05-07T10:51:29;4.25;;;2.78;;
6564;SDS011;3316;44.118;27.258;2023-05-07T10:56:37;11.48;;;2.28;;
6564;SDS011;3316;44.118;27.258;2023-05-07T10:59:36;6.88;;;2.90;;
6564;SDS011;3316;44.118;27.258;2023-05-07T11:01:59;7.53;;;2.70;;
6564;SDS011;3316;44.118;27.258;2023-05-07T11:04:28;3.80;;;2.45;;
6564;SDS011;3316;44.118;27.258;2023-05-07T11:13:02;7.20;;;2.85;;
6564;SDS011;3316;44.118;27.258;2023-05-07T11:17:32;3.45;;;2.50;;
6564;SDS011;3316;44.118;27.258;2023-05-07T11:19:59;6.25;;;2.63;;
6564;SDS011;3316;44.118;27.258;2023-05-07T11:25:01;3.28;;;2.30;;
6564;SDS011;3316;44.118;27.258;2023-05-07T11:27:27;11.98;;;2.55;;
6564;SDS011;3316;44.118;27.258;2023-05-07T11:29:53;6.25;;;2.50;;
6564;SDS011;3316;44.118;27.258;2023-05-07T11:32:25;3.80;;;2.65;;
6564;SDS011;3316;44.118;27.258;2023-05-07T11:34:56;5.05;;;2.45;;
6564;SDS011;3316;44.118;27.258;2023-05-07T11:37:23;5.15;;;2.75;;
6564;SDS011;3316;44.118;27.258;2023-05-07T11:39:50;7.10;;;2.33;;
6564;SDS011;3316;44.118;27.258;2023-05-07T11:42:40;3.25;;;2.58;;
6564;SDS011;3316;44.118;27.258;2023-05-07T11:45:06;4.80;;;3.08;;
6564;SDS011;3316;44.118;27.258;2023-05-07T11:47:33;6.88;;;2.53;;
6564;SDS011;3316;44.118;27.258;2023-05-07T11:50:05;3.65;;;2.72;;
6564;SDS011;3316;44.118;27.258;2023-05-07T11:52:32;5.28;;;2.83;;
6564;SDS011;3316;44.118;27.258;2023-05-07T11:54:59;10.93;;;2.67;;
6564;SDS011;3316;44.118;27.258;2023-05-07T11:57:26;3.33;;;2.50;;
6564;SDS011;3316;44.118;27.258;2023-05-07T11:59:56;13.57;;;2.53;;
6564;SDS011;3316;44.118;27.258;2023-05-07T12:02:22;13.13;;;3.20;;
6564;SDS011;3316;44.118;27.258;2023-05-07T12:04:50;2.75;;;2.42;;
6564;SDS011;3316;44.118;27.258;2023-05-07T12:07:16;5.00;;;2.42;;
6564;SDS011;3316;44.118;27.258;2023-05-07T12:09:43;4.15;;;2.20;;
6564;SDS011;3316;44.118;27.258;2023-05-07T12:12:09;2.83;;;2.35;;
6564;SDS011;3316;44.118;27.258;2023-05-07T12:14:41;5.78;;;2.50;;
6564;SDS011;3316;44.118;27.258;2023-05-07T12:17:08;6.25;;;2.55;;
6564;SDS011;3316;44.118;27.258;2023-05-07T12:19:35;5.43;;;2.90;;
6564;SDS011;3316;44.118;27.258;2023-05-07T12:22:02;6.75;;;2.40;;
6564;SDS011;3316;44.118;27.258;2023-05-07T12:24:28;6.35;;;2.70;;
6564;SDS011;3316;44.118;27.258;2023-05-07T12:26:54;5.80;;;2.40;;
6564;SDS011;3316;44.118;27.258;2023-05-07T12:29:22;4.18;;;2.47;;
6564;SDS011;3316;44.118;27.258;2023-05-07T12:31:49;3.42;;;2.20;;
6564;SDS011;3316;44.118;27.258;2023-05-07T12:34:15;2.90;;;2.05;;
6564;SDS011;3316;44.118;27.258;2023-05-07T12:36:41;4.65;;;2.17;;
6564;SDS011;3316;44.118;27.258;2023-05-07T12:39:07;3.90;;;2.45;;
6564;SDS011;3316;44.118;27.258;2023-05-07T12:41:55;6.40;;;2.13;;
6564;SDS011;3316;44.118;27.258;2023-05-07T12:44:23;3.45;;;2.25;;
6564;SDS011;3316;44.118;27.258;2023-05-07T12:46:49;3.85;;;2.30;;
6564;SDS011;3316;44.118;27.258;2023-05-07T12:49:15;3.65;;;2.25;;
6564;SDS011;3316;44.118;27.258;2023-05-07T12:51:42;6.22;;;2.15;;
6564;SDS011;3316;44.118;27.258;2023-05-07T12:54:08;4.95;;;3.30;;
6564;SDS011;3316;44.118;27.258;2023-05-07T12:56:36;5.93;;;2.75;;
6564;SDS011;3316;44.118;27.258;2023-05-07T12:59:02;6.55;;;2.40;;
6564;SDS011;3316;44.118;27.258;2023-05-07T13:01:28;6.80;;;2.40;;
6564;SDS011;3316;44.118;27.258;2023-05-07T13:03:55;3.70;;;2.10;;
6564;SDS011;3316;44.118;27.258;2023-05-07T13:06:20;3.67;;;2.40;;
6564;SDS011;3316;44.118;27.258;2023-05-07T13:08:46;3.58;;;2.13;;
6564;SDS011;3316;44.118;27.258;2023-05-07T13:11:12;5.15;;;2.20;;
6564;SDS011;3316;44.118;27.258;2023-05-07T13:13:38;4.72;;;2.55;;
6564;SDS011;3316;44.118;27.258;2023-05-07T13:16:06;5.57;;;2.97;;
6564;SDS011;3316;44.118;27.258;2023-05-07T13:18:33;4.88;;;2.50;;
6564;SDS011;3316;44.118;27.258;2023-05-07T13:20:59;4.30;;;2.50;;
6564;SDS011;3316;44.118;27.258;2023-05-07T13:23:26;6.22;;;2.45;;
6564;SDS011;3316;44.118;27.258;2023-05-07T13:25:51;6.53;;;2.97;;
6564;SDS011;3316;44.118;27.258;2023-05-07T13:28:21;6.75;;;2.30;;
6564;SDS011;3316;44.118;27.258;2023-05-07T13:30:47;5.90;;;2.42;;
6564;SDS011;3316;44.118;27.258;2023-05-07T13:33:13;3.95;;;2.80;;
6564;SDS011;3316;44.118;27.258;2023-05-07T13:35:39;3.95;;;2.40;;
6564;SDS011;3316;44.118;27.258;2023-05-07T13:38:04;6.65;;;2.80;;
6564;SDS011;3316;44.118;27.258;2023-05-07T13:40:30;4.63;;;2.85;;
6564;SDS011;3316;44.118;27.258;2023-05-07T13:42:59;6.50;;;2.38;;
6564;SDS011;3316;44.118;27.258;2023-05-07T13:45:26;4.35;;;2.53;;
6564;SDS011;3316;44.118;27.258;2023-05-07T13:47:54;3.50;;;2.67;;
6564;SDS011;3316;44.118;27.258;2023-05-07T13:50:20;4.72;;;2.65;;
6564;SDS011;3316;44.118;27.258;2023-05-07T13:52:45;3.33;;;2.47;;
6564;SDS011;3316;44.118;27.258;2023-05-07T13:55:16;4.38;;;2.40;;
6564;SDS011;3316;44.118;27.258;2023-05-07T13:57:45;9.80;;;2.88;;
6564;SDS011;3316;44.118;27.258;2023-05-07T14:00:12;7.97;;;3.08;;
6564;SDS011;3316;44.118;27.258;2023-05-07T14:02:39;4.22;;;2.88;;
6564;SDS011;3316;44.118;27.258;2023-05-07T14:05:05;3.63;;;2.63;;
6564;SDS011;3316;44.118;27.258;2023-05-07T14:07:31;3.35;;;2.58;;
6564;SDS011;3316;44.118;27.258;2023-05-07T14:09:57;6.40;;;2.63;;
6564;SDS011;3316;44.118;27.258;2023-05-07T14:12:22;7.88;;;2.55;;
6564;SDS011;3316;44.118;27.258;2023-05-07T14:14:48;3.00;;;2.55;;
6564;SDS011;3316;44.118;27.258;2023-05-07T14:17:15;7.32;;;2.45;;
6564;SDS011;3316;44.118;27.258;2023-05-07T14:19:43;3.70;;;2.67;;
6564;SDS011;3316;44.118;27.258;2023-05-07T14:22:09;3.63;;;2.42;;
6564;SDS011;3316;44.118;27.258;2023-05-07T14:24:34;5.55;;;2.72;;
6564;SDS011;3316;44.118;27.258;2023-05-07T14:27:00;4.35;;;2.67;;
6564;SDS011;3316;44.118;27.258;2023-05-07T14:29:25;6.25;;;2.70;;
6564;SDS011;3316;44.118;27.258;2023-05-07T14:31:51;4.65;;;2.45;;
6564;SDS011;3316;44.118;27.258;2023-05-07T14:34:16;8.93;;;2.45;;
6564;SDS011;3316;44.118;27.258;2023-05-07T14:36:41;5.57;;;2.42;;
6564;SDS011;3316;44.118;27.258;2023-05-07T14:39:08;2.85;;;2.40;;
6564;SDS011;3316;44.118;27.258;2023-05-07T14:41:34;6.15;;;2.45;;
6564;SDS011;3316;44.118;27.258;2023-05-07T14:44:00;3.38;;;2.20;;
6564;SDS011;3316;44.118;27.258;2023-05-07T14:46:26;9.48;;;2.38;;
6564;SDS011;3316;44.118;27.258;2023-05-07T14:48:52;2.92;;;2.40;;
6564;SDS011;3316;44.118;27.258;2023-05-07T14:51:17;3.13;;;2.53;;
6564;SDS011;3316;44.118;27.258;2023-05-07T14:53:43;4.93;;;2.80;;
6564;SDS011;3316;44.118;27.258;2023-05-07T14:56:09;4.20;;;2.72;;
6564;SDS011;3316;44.118;27.258;2023-05-07T14:58:34;4.85;;;2.55;;
6564;SDS011;3316;44.118;27.258;2023-05-07T15:01:00;4.85;;;2.67;;
6564;SDS011;3316;44.118;27.258;2023-05-07T15:03:26;3.97;;;2.33;;
6564;SDS011;3316;44.118;27.258;2023-05-07T15:05:52;4.10;;;2.72;;
6564;SDS011;3316;44.118;27.258;2023-05-07T15:08:18;5.93;;;2.67;;
6564;SDS011;3316;44.118;27.258;2023-05-07T15:10:43;6.38;;;3.60;;
6564;SDS011;3316;44.118;27.258;2023-05-07T15:13:09;3.88;;;2.67;;